ADDS METAR Data INFO
IDs: Format: Raw Decoded Include TAF

Data at: 1609 UTC 19 Oct 2017

KGGG 191553Z VRB03KT 10SM CLR 23/17 A3020 RMK AO2 SLP224 T02280167
KGGG 191453Z 13003KT 10SM CLR 19/16 A3021 RMK AO2 SLP225 T01890161 52014
KGGG 191353Z 00000KT 10SM CLR 16/15 A3019 RMK AO2 SLP222 T01560150

KGGG 191122Z 1912/2012 00000KT P6SM BKN280
  TEMPO 1912/1914 5SM BR SCT015 BKN280
  FM191400 12003KT P6SM BKN280
  FM191600 16007KT P6SM SCT035 BKN280
  FM192000 11007KT P6SM BKN280
  FM200000 11004KT P6SM BKN280
  FM201000 12003KT P6SM BKN040 OVC100


KTYR 191553Z 16006KT 10SM CLR 23/14 A3020 RMK AO2 SLP221 T02330144
KTYR 191453Z 18004KT 10SM CLR 21/16 A3020 RMK AO2 SLP222 T02060156 53013
KTYR 191353Z 14005KT 3SM BR BKN050 17/16 A3018 RMK AO2 SLP216 T01720156

KTYR 191122Z 1912/2012 00000KT P6SM BKN280
  TEMPO 1912/1914 5SM BR FEW015
  FM191400 14004KT P6SM FEW015 BKN280
  FM191600 14007KT P6SM SCT035 BKN280
  FM192000 13008KT P6SM BKN280
  FM200000 12006KT P6SM SCT120 BKN280
  FM200700 14005KT P6SM BKN080 OVC120